Terminal Aerodrome Forecast
Issued by NWS

Home | Current Version | Previous Version | Graphics & Text | Print | Product List | Glossary On
Versions: 1 2 3 4 5 6 7 8 9 10 11 12 13 14 15 16 17 18
000
FTUS42 KMHX 180500
TAFPGV
TAF
KPGV 180521Z 1806/1906 01005KT P6SM SCT060 SCT090
     FM180800 02005KT P6SM BKN030
     FM181300 04005KT P6SM SCT030
     FM181900 04005KT P6SM SCT050
     FM182300 04005KT P6SM SKC
      AMD LTD TO CLD VIS AND WIND=

USA.gov is the U.S. government's official web portal to all federal, state and local government web resources and services.